sensor_id;sensor_type;location;lat;lon;timestamp;P1;durP1;ratioP1;P2;durP2;ratioP2
60468;SDS011;46316;47.582;10.238;2022-08-19T00:01:26;3.97;;;3.58;;
60468;SDS011;46316;47.582;10.238;2022-08-19T00:03:54;3.88;;;3.58;;
60468;SDS011;46316;47.582;10.238;2022-08-19T00:06:20;4.22;;;3.80;;
60468;SDS011;46316;47.582;10.238;2022-08-19T00:08:46;4.00;;;3.67;;
60468;SDS011;46316;47.582;10.238;2022-08-19T00:11:11;3.90;;;3.60;;
60468;SDS011;46316;47.582;10.238;2022-08-19T00:13:38;3.70;;;3.40;;
60468;SDS011;46316;47.582;10.238;2022-08-19T00:16:05;7.43;;;3.88;;
60468;SDS011;46316;47.582;10.238;2022-08-19T00:18:32;3.83;;;3.45;;
60468;SDS011;46316;47.582;10.238;2022-08-19T00:20:58;3.63;;;3.30;;
60468;SDS011;46316;47.582;10.238;2022-08-19T00:23:24;6.97;;;3.75;;
60468;SDS011;46316;47.582;10.238;2022-08-19T00:25:50;3.72;;;3.35;;
60468;SDS011;46316;47.582;10.238;2022-08-19T00:28:16;3.92;;;3.63;;
60468;SDS011;46316;47.582;10.238;2022-08-19T00:30:42;3.42;;;3.13;;
60468;SDS011;46316;47.582;10.238;2022-08-19T00:33:08;3.60;;;3.30;;
60468;SDS011;46316;47.582;10.238;2022-08-19T00:35:34;3.90;;;3.50;;
60468;SDS011;46316;47.582;10.238;2022-08-19T00:37:59;3.85;;;3.50;;
60468;SDS011;46316;47.582;10.238;2022-08-19T00:40:25;3.28;;;2.92;;
60468;SDS011;46316;47.582;10.238;2022-08-19T00:42:51;3.80;;;3.50;;
60468;SDS011;46316;47.582;10.238;2022-08-19T00:45:21;3.95;;;3.42;;
60468;SDS011;46316;47.582;10.238;2022-08-19T00:47:50;3.47;;;3.17;;
60468;SDS011;46316;47.582;10.238;2022-08-19T00:50:17;3.85;;;3.55;;
60468;SDS011;46316;47.582;10.238;2022-08-19T00:52:47;5.40;;;3.38;;
60468;SDS011;46316;47.582;10.238;2022-08-19T00:55:19;4.45;;;4.05;;
60468;SDS011;46316;47.582;10.238;2022-08-19T00:57:49;3.80;;;3.40;;
60468;SDS011;46316;47.582;10.238;2022-08-19T01:00:21;3.45;;;3.13;;
60468;SDS011;46316;47.582;10.238;2022-08-19T01:02:48;3.78;;;3.42;;
60468;SDS011;46316;47.582;10.238;2022-08-19T01:05:16;3.60;;;3.30;;
60468;SDS011;46316;47.582;10.238;2022-08-19T01:10:12;3.72;;;3.42;;
60468;SDS011;46316;47.582;10.238;2022-08-19T01:12:39;3.30;;;3.00;;
60468;SDS011;46316;47.582;10.238;2022-08-19T01:15:06;4.40;;;4.00;;
60468;SDS011;46316;47.582;10.238;2022-08-19T01:17:34;3.47;;;3.17;;
60468;SDS011;46316;47.582;10.238;2022-08-19T01:20:03;4.20;;;3.63;;
60468;SDS011;46316;47.582;10.238;2022-08-19T01:22:34;4.22;;;3.83;;
60468;SDS011;46316;47.582;10.238;2022-08-19T01:25:06;4.15;;;3.55;;
60468;SDS011;46316;47.582;10.238;2022-08-19T01:27:39;6.43;;;4.82;;
60468;SDS011;46316;47.582;10.238;2022-08-19T01:30:06;4.35;;;3.95;;
60468;SDS011;46316;47.582;10.238;2022-08-19T01:32:32;4.45;;;3.80;;
60468;SDS011;46316;47.582;10.238;2022-08-19T01:34:58;4.50;;;4.03;;
60468;SDS011;46316;47.582;10.238;2022-08-19T01:37:26;4.03;;;3.55;;
60468;SDS011;46316;47.582;10.238;2022-08-19T01:39:51;4.40;;;4.00;;
60468;SDS011;46316;47.582;10.238;2022-08-19T01:42:18;3.70;;;3.33;;
60468;SDS011;46316;47.582;10.238;2022-08-19T01:44:44;4.65;;;4.25;;
60468;SDS011;46316;47.582;10.238;2022-08-19T01:47:10;3.95;;;3.55;;
60468;SDS011;46316;47.582;10.238;2022-08-19T01:49:36;3.88;;;3.55;;
60468;SDS011;46316;47.582;10.238;2022-08-19T01:52:03;4.03;;;3.45;;
60468;SDS011;46316;47.582;10.238;2022-08-19T01:54:29;3.90;;;3.50;;
60468;SDS011;46316;47.582;10.238;2022-08-19T01:56:56;3.88;;;3.58;;
60468;SDS011;46316;47.582;10.238;2022-08-19T01:59:26;5.25;;;3.88;;
60468;SDS011;46316;47.582;10.238;2022-08-19T02:01:52;5.05;;;4.63;;
60468;SDS011;46316;47.582;10.238;2022-08-19T02:04:18;5.43;;;4.93;;
60468;SDS011;46316;47.582;10.238;2022-08-19T02:06:43;4.88;;;4.47;;
60468;SDS011;46316;47.582;10.238;2022-08-19T02:09:09;5.35;;;4.88;;
60468;SDS011;46316;47.582;10.238;2022-08-19T02:11:35;4.85;;;4.45;;
60468;SDS011;46316;47.582;10.238;2022-08-19T02:14:03;6.00;;;5.47;;
60468;SDS011;46316;47.582;10.238;2022-08-19T02:16:30;5.88;;;5.38;;
60468;SDS011;46316;47.582;10.238;2022-08-19T02:18:57;5.80;;;5.15;;
60468;SDS011;46316;47.582;10.238;2022-08-19T02:21:25;5.90;;;5.40;;
60468;SDS011;46316;47.582;10.238;2022-08-19T02:23:52;5.78;;;5.28;;
60468;SDS011;46316;47.582;10.238;2022-08-19T02:26:18;5.43;;;4.93;;
60468;SDS011;46316;47.582;10.238;2022-08-19T02:28:44;5.50;;;4.97;;
60468;SDS011;46316;47.582;10.238;2022-08-19T02:31:14;5.57;;;5.07;;
60468;SDS011;46316;47.582;10.238;2022-08-19T02:33:42;7.95;;;4.50;;
60468;SDS011;46316;47.582;10.238;2022-08-19T02:36:09;5.40;;;4.90;;
60468;SDS011;46316;47.582;10.238;2022-08-19T02:38:36;6.22;;;4.75;;
60468;SDS011;46316;47.582;10.238;2022-08-19T02:41:04;4.30;;;3.90;;
60468;SDS011;46316;47.582;10.238;2022-08-19T02:43:32;4.30;;;3.90;;
60468;SDS011;46316;47.582;10.238;2022-08-19T02:46:02;4.90;;;4.00;;
60468;SDS011;46316;47.582;10.238;2022-08-19T02:48:36;4.07;;;3.67;;
60468;SDS011;46316;47.582;10.238;2022-08-19T02:51:02;4.28;;;3.88;;
60468;SDS011;46316;47.582;10.238;2022-08-19T02:53:28;4.47;;;4.00;;
60468;SDS011;46316;47.582;10.238;2022-08-19T02:55:54;4.05;;;3.75;;
60468;SDS011;46316;47.582;10.238;2022-08-19T02:58:20;4.07;;;3.38;;
60468;SDS011;46316;47.582;10.238;2022-08-19T03:00:48;4.47;;;4.07;;
60468;SDS011;46316;47.582;10.238;2022-08-19T03:03:16;4.43;;;4.03;;
60468;SDS011;46316;47.582;10.238;2022-08-19T03:05:42;6.50;;;4.57;;
60468;SDS011;46316;47.582;10.238;2022-08-19T03:08:09;4.65;;;3.60;;
60468;SDS011;46316;47.582;10.238;2022-08-19T03:10:45;4.05;;;3.63;;
60468;SDS011;46316;47.582;10.238;2022-08-19T03:13:12;5.20;;;4.35;;
60468;SDS011;46316;47.582;10.238;2022-08-19T03:15:41;4.40;;;4.00;;
60468;SDS011;46316;47.582;10.238;2022-08-19T03:18:08;4.13;;;3.83;;
60468;SDS011;46316;47.582;10.238;2022-08-19T03:20:39;4.15;;;3.85;;
60468;SDS011;46316;47.582;10.238;2022-08-19T03:23:08;6.82;;;4.22;;
60468;SDS011;46316;47.582;10.238;2022-08-19T03:25:39;4.53;;;4.05;;
60468;SDS011;46316;47.582;10.238;2022-08-19T03:28:08;4.25;;;3.85;;
60468;SDS011;46316;47.582;10.238;2022-08-19T03:30:37;4.57;;;4.18;;
60468;SDS011;46316;47.582;10.238;2022-08-19T03:33:05;4.72;;;4.32;;
60468;SDS011;46316;47.582;10.238;2022-08-19T03:35:32;5.35;;;4.38;;
60468;SDS011;46316;47.582;10.238;2022-08-19T03:37:58;5.75;;;4.75;;
60468;SDS011;46316;47.582;10.238;2022-08-19T03:40:24;5.20;;;4.10;;
60468;SDS011;46316;47.582;10.238;2022-08-19T03:42:50;4.55;;;4.15;;
60468;SDS011;46316;47.582;10.238;2022-08-19T03:45:16;6.07;;;4.30;;
60468;SDS011;46316;47.582;10.238;2022-08-19T03:47:42;5.70;;;5.00;;
60468;SDS011;46316;47.582;10.238;2022-08-19T03:50:07;4.88;;;4.45;;
60468;SDS011;46316;47.582;10.238;2022-08-19T03:52:34;4.95;;;4.40;;
60468;SDS011;46316;47.582;10.238;2022-08-19T03:55:00;5.30;;;4.80;;
60468;SDS011;46316;47.582;10.238;2022-08-19T03:57:27;4.38;;;3.97;;
60468;SDS011;46316;47.582;10.238;2022-08-19T03:59:52;5.15;;;4.72;;
60468;SDS011;46316;47.582;10.238;2022-08-19T04:02:18;5.47;;;4.97;;
60468;SDS011;46316;47.582;10.238;2022-08-19T04:04:43;5.93;;;5.43;;
60468;SDS011;46316;47.582;10.238;2022-08-19T04:07:09;7.28;;;5.07;;
60468;SDS011;46316;47.582;10.238;2022-08-19T04:09:37;5.30;;;4.70;;
60468;SDS011;46316;47.582;10.238;2022-08-19T04:12:03;5.20;;;4.80;;
60468;SDS011;46316;47.582;10.238;2022-08-19T04:14:31;4.60;;;4.20;;
60468;SDS011;46316;47.582;10.238;2022-08-19T04:16:57;4.70;;;4.30;;
60468;SDS011;46316;47.582;10.238;2022-08-19T04:19:24;5.30;;;4.80;;
60468;SDS011;46316;47.582;10.238;2022-08-19T04:21:52;5.10;;;4.32;;
60468;SDS011;46316;47.582;10.238;2022-08-19T04:24:19;5.20;;;4.70;;
60468;SDS011;46316;47.582;10.238;2022-08-19T04:26:46;6.03;;;4.97;;
60468;SDS011;46316;47.582;10.238;2022-08-19T04:29:16;6.85;;;4.85;;
60468;SDS011;46316;47.582;10.238;2022-08-19T04:31:46;5.50;;;4.53;;
60468;SDS011;46316;47.582;10.238;2022-08-19T04:34:12;7.30;;;4.32;;
60468;SDS011;46316;47.582;10.238;2022-08-19T04:36:40;6.68;;;3.88;;
60468;SDS011;46316;47.582;10.238;2022-08-19T04:39:08;4.47;;;4.07;;
60468;SDS011;46316;47.582;10.238;2022-08-19T04:41:36;5.03;;;4.32;;
60468;SDS011;46316;47.582;10.238;2022-08-19T04:44:21;4.95;;;4.07;;
60468;SDS011;46316;47.582;10.238;2022-08-19T04:46:47;4.25;;;3.85;;
60468;SDS011;46316;47.582;10.238;2022-08-19T04:49:13;4.38;;;4.05;;
60468;SDS011;46316;47.582;10.238;2022-08-19T04:51:41;4.90;;;4.50;;
60468;SDS011;46316;47.582;10.238;2022-08-19T04:54:08;4.80;;;4.40;;
60468;SDS011;46316;47.582;10.238;2022-08-19T04:56:33;4.47;;;4.07;;
60468;SDS011;46316;47.582;10.238;2022-08-19T04:58:59;4.57;;;4.18;;
60468;SDS011;46316;47.582;10.238;2022-08-19T05:01:29;4.63;;;3.87;;
60468;SDS011;46316;47.582;10.238;2022-08-19T05:03:57;4.20;;;3.90;;
60468;SDS011;46316;47.582;10.238;2022-08-19T05:06:23;4.88;;;3.92;;
60468;SDS011;46316;47.582;10.238;2022-08-19T05:08:50;4.90;;;4.50;;
60468;SDS011;46316;47.582;10.238;2022-08-19T05:11:23;4.63;;;4.22;;
60468;SDS011;46316;47.582;10.238;2022-08-19T05:13:52;4.25;;;3.88;;
60468;SDS011;46316;47.582;10.238;2022-08-19T05:16:19;5.53;;;3.88;;
60468;SDS011;46316;47.582;10.238;2022-08-19T05:18:46;4.22;;;3.83;;
60468;SDS011;46316;47.582;10.238;2022-08-19T05:21:31;3.90;;;3.60;;
60468;SDS011;46316;47.582;10.238;2022-08-19T05:24:16;4.13;;;3.78;;
60468;SDS011;46316;47.582;10.238;2022-08-19T05:26:47;3.63;;;3.33;;
60468;SDS011;46316;47.582;10.238;2022-08-19T05:29:15;4.03;;;3.72;;
60468;SDS011;46316;47.582;10.238;2022-08-19T05:31:43;5.10;;;3.78;;
60468;SDS011;46316;47.582;10.238;2022-08-19T05:34:08;3.70;;;3.40;;
60468;SDS011;46316;47.582;10.238;2022-08-19T05:36:37;3.17;;;2.88;;
60468;SDS011;46316;47.582;10.238;2022-08-19T05:39:06;2.88;;;2.58;;
60468;SDS011;46316;47.582;10.238;2022-08-19T05:41:46;3.15;;;2.85;;
60468;SDS011;46316;47.582;10.238;2022-08-19T05:44:17;4.35;;;3.35;;
60468;SDS011;46316;47.582;10.238;2022-08-19T05:46:43;3.38;;;3.08;;
60468;SDS011;46316;47.582;10.238;2022-08-19T05:49:12;3.10;;;2.80;;
60468;SDS011;46316;47.582;10.238;2022-08-19T05:51:38;3.08;;;2.80;;
60468;SDS011;46316;47.582;10.238;2022-08-19T05:54:04;3.35;;;2.60;;
60468;SDS011;46316;47.582;10.238;2022-08-19T05:56:31;5.30;;;2.63;;
60468;SDS011;46316;47.582;10.238;2022-08-19T05:58:57;2.80;;;2.60;;
60468;SDS011;46316;47.582;10.238;2022-08-19T06:01:23;2.40;;;2.20;;
60468;SDS011;46316;47.582;10.238;2022-08-19T06:03:50;2.53;;;2.13;;
60468;SDS011;46316;47.582;10.238;2022-08-19T06:06:16;1.90;;;1.70;;
60468;SDS011;46316;47.582;10.238;2022-08-19T06:08:42;1.83;;;1.60;;
60468;SDS011;46316;47.582;10.238;2022-08-19T06:13:45;1.45;;;1.25;;
60468;SDS011;46316;47.582;10.238;2022-08-19T06:16:18;1.45;;;1.35;;
60468;SDS011;46316;47.582;10.238;2022-08-19T06:18:51;1.30;;;1.20;;
60468;SDS011;46316;47.582;10.238;2022-08-19T06:21:22;1.15;;;1.05;;
60468;SDS011;46316;47.582;10.238;2022-08-19T06:23:49;1.30;;;1.20;;
60468;SDS011;46316;47.582;10.238;2022-08-19T06:26:16;1.00;;;1.00;;
60468;SDS011;46316;47.582;10.238;2022-08-19T06:28:44;1.33;;;1.23;;
60468;SDS011;46316;47.582;10.238;2022-08-19T06:31:18;1.42;;;1.33;;
60468;SDS011;46316;47.582;10.238;2022-08-19T06:33:47;1.50;;;1.40;;
60468;SDS011;46316;47.582;10.238;2022-08-19T06:36:17;1.70;;;1.60;;
60468;SDS011;46316;47.582;10.238;2022-08-19T06:38:50;1.30;;;1.20;;
60468;SDS011;46316;47.582;10.238;2022-08-19T06:41:16;1.67;;;1.58;;
60468;SDS011;46316;47.582;10.238;2022-08-19T06:43:41;2.17;;;2.00;;
60468;SDS011;46316;47.582;10.238;2022-08-19T06:46:13;2.10;;;2.00;;
60468;SDS011;46316;47.582;10.238;2022-08-19T06:48:43;3.08;;;1.90;;
60468;SDS011;46316;47.582;10.238;2022-08-19T06:51:10;2.97;;;2.03;;
60468;SDS011;46316;47.582;10.238;2022-08-19T06:53:35;2.25;;;2.00;;
60468;SDS011;46316;47.582;10.238;2022-08-19T06:56:01;2.22;;;2.03;;
60468;SDS011;46316;47.582;10.238;2022-08-19T06:58:31;2.60;;;1.73;;
60468;SDS011;46316;47.582;10.238;2022-08-19T07:00:58;1.65;;;1.55;;
60468;SDS011;46316;47.582;10.238;2022-08-19T07:03:32;1.45;;;1.35;;
60468;SDS011;46316;47.582;10.238;2022-08-19T07:06:10;1.70;;;1.60;;
60468;SDS011;46316;47.582;10.238;2022-08-19T07:08:39;1.50;;;1.40;;
60468;SDS011;46316;47.582;10.238;2022-08-19T07:11:06;1.63;;;1.52;;
60468;SDS011;46316;47.582;10.238;2022-08-19T07:13:33;1.50;;;1.40;;
60468;SDS011;46316;47.582;10.238;2022-08-19T07:16:05;2.63;;;1.50;;
60468;SDS011;46316;47.582;10.238;2022-08-19T07:18:31;1.55;;;1.33;;
60468;SDS011;46316;47.582;10.238;2022-08-19T07:21:04;1.83;;;1.48;;
60468;SDS011;46316;47.582;10.238;2022-08-19T07:23:39;1.70;;;1.60;;
60468;SDS011;46316;47.582;10.238;2022-08-19T07:26:08;2.35;;;1.73;;
60468;SDS011;46316;47.582;10.238;2022-08-19T07:28:55;2.08;;;1.48;;
60468;SDS011;46316;47.582;10.238;2022-08-19T07:31:23;1.50;;;1.40;;
60468;SDS011;46316;47.582;10.238;2022-08-19T07:33:50;1.75;;;1.65;;
60468;SDS011;46316;47.582;10.238;2022-08-19T07:36:22;1.70;;;1.45;;
60468;SDS011;46316;47.582;10.238;2022-08-19T07:38:50;2.72;;;1.70;;
60468;SDS011;46316;47.582;10.238;2022-08-19T07:41:20;1.60;;;1.50;;
60468;SDS011;46316;47.582;10.238;2022-08-19T07:43:47;1.45;;;1.27;;
60468;SDS011;46316;47.582;10.238;2022-08-19T07:46:14;1.65;;;1.55;;
60468;SDS011;46316;47.582;10.238;2022-08-19T07:48:41;3.13;;;1.50;;
60468;SDS011;46316;47.582;10.238;2022-08-19T07:51:10;1.70;;;1.60;;
60468;SDS011;46316;47.582;10.238;2022-08-19T07:53:36;2.33;;;1.30;;
60468;SDS011;46316;47.582;10.238;2022-08-19T07:56:03;2.42;;;1.50;;
60468;SDS011;46316;47.582;10.238;2022-08-19T07:58:31;1.70;;;1.60;;
60468;SDS011;46316;47.582;10.238;2022-08-19T08:00:58;1.65;;;1.50;;
60468;SDS011;46316;47.582;10.238;2022-08-19T08:03:25;1.40;;;1.30;;
60468;SDS011;46316;47.582;10.238;2022-08-19T08:06:13;2.03;;;1.50;;
60468;SDS011;46316;47.582;10.238;2022-08-19T08:08:59;1.80;;;1.63;;
60468;SDS011;46316;47.582;10.238;2022-08-19T08:14:25;1.65;;;1.55;;
60468;SDS011;46316;47.582;10.238;2022-08-19T08:16:53;2.35;;;1.70;;
60468;SDS011;46316;47.582;10.238;2022-08-19T08:19:19;1.40;;;1.30;;
60468;SDS011;46316;47.582;10.238;2022-08-19T08:21:47;1.50;;;1.40;;
60468;SDS011;46316;47.582;10.238;2022-08-19T08:24:13;1.50;;;1.40;;
60468;SDS011;46316;47.582;10.238;2022-08-19T08:26:39;1.70;;;1.60;;
60468;SDS011;46316;47.582;10.238;2022-08-19T08:29:06;1.83;;;1.63;;
60468;SDS011;46316;47.582;10.238;2022-08-19T08:31:34;1.73;;;1.63;;
60468;SDS011;46316;47.582;10.238;2022-08-19T08:33:59;1.83;;;1.73;;
60468;SDS011;46316;47.582;10.238;2022-08-19T08:36:25;1.77;;;1.67;;
60468;SDS011;46316;47.582;10.238;2022-08-19T08:38:52;1.75;;;1.60;;
60468;SDS011;46316;47.582;10.238;2022-08-19T08:41:21;2.22;;;2.03;;
60468;SDS011;46316;47.582;10.238;2022-08-19T08:43:53;2.28;;;2.08;;
60468;SDS011;46316;47.582;10.238;2022-08-19T08:46:23;2.20;;;2.00;;
60468;SDS011;46316;47.582;10.238;2022-08-19T08:49:10;2.42;;;2.22;;
60468;SDS011;46316;47.582;10.238;2022-08-19T08:52:05;2.65;;;2.45;;
60468;SDS011;46316;47.582;10.238;2022-08-19T08:54:42;3.03;;;2.60;;
60468;SDS011;46316;47.582;10.238;2022-08-19T08:57:12;2.80;;;2.50;;
60468;SDS011;46316;47.582;10.238;2022-08-19T08:59:40;2.42;;;2.22;;
60468;SDS011;46316;47.582;10.238;2022-08-19T09:02:08;2.90;;;2.40;;
60468;SDS011;46316;47.582;10.238;2022-08-19T09:04:35;2.17;;;2.00;;
60468;SDS011;46316;47.582;10.238;2022-08-19T09:09:46;2.00;;;1.90;;
60468;SDS011;46316;47.582;10.238;2022-08-19T09:15:00;2.63;;;2.40;;
60468;SDS011;46316;47.582;10.238;2022-08-19T09:17:29;2.70;;;2.47;;
60468;SDS011;46316;47.582;10.238;2022-08-19T09:20:03;3.92;;;2.10;;
60468;SDS011;46316;47.582;10.238;2022-08-19T09:22:36;2.80;;;2.60;;
60468;SDS011;46316;47.582;10.238;2022-08-19T09:25:03;2.42;;;2.22;;
60468;SDS011;46316;47.582;10.238;2022-08-19T09:27:31;2.30;;;2.10;;
60468;SDS011;46316;47.582;10.238;2022-08-19T09:29:57;2.20;;;2.00;;
60468;SDS011;46316;47.582;10.238;2022-08-19T09:32:23;2.50;;;2.30;;
60468;SDS011;46316;47.582;10.238;2022-08-19T09:34:52;2.38;;;2.05;;
60468;SDS011;46316;47.582;10.238;2022-08-19T09:37:19;2.25;;;2.05;;
60468;SDS011;46316;47.582;10.238;2022-08-19T09:39:46;2.70;;;2.50;;
60468;SDS011;46316;47.582;10.238;2022-08-19T09:42:12;2.45;;;2.25;;
60468;SDS011;46316;47.582;10.238;2022-08-19T09:44:39;2.00;;;1.90;;
60468;SDS011;46316;47.582;10.238;2022-08-19T09:47:06;3.03;;;2.45;;
60468;SDS011;46316;47.582;10.238;2022-08-19T09:49:32;3.03;;;2.13;;
60468;SDS011;46316;47.582;10.238;2022-08-19T09:51:58;2.53;;;2.33;;
60468;SDS011;46316;47.582;10.238;2022-08-19T09:54:24;2.28;;;2.08;;
60468;SDS011;46316;47.582;10.238;2022-08-19T09:56:50;2.10;;;1.90;;
60468;SDS011;46316;47.582;10.238;2022-08-19T09:59:16;2.58;;;2.38;;
60468;SDS011;46316;47.582;10.238;2022-08-19T10:01:42;3.00;;;2.75;;
60468;SDS011;46316;47.582;10.238;2022-08-19T10:04:07;2.33;;;2.15;;
60468;SDS011;46316;47.582;10.238;2022-08-19T10:06:34;2.70;;;2.50;;
60468;SDS011;46316;47.582;10.238;2022-08-19T10:09:00;3.03;;;2.83;;
60468;SDS011;46316;47.582;10.238;2022-08-19T10:11:28;2.95;;;2.70;;
60468;SDS011;46316;47.582;10.238;2022-08-19T10:13:55;2.38;;;2.17;;
60468;SDS011;46316;47.582;10.238;2022-08-19T10:16:21;3.40;;;3.10;;
60468;SDS011;46316;47.582;10.238;2022-08-19T10:18:48;3.53;;;3.15;;
60468;SDS011;46316;47.582;10.238;2022-08-19T10:21:16;3.40;;;3.10;;
60468;SDS011;46316;47.582;10.238;2022-08-19T10:23:48;4.43;;;3.05;;
60468;SDS011;46316;47.582;10.238;2022-08-19T10:26:16;4.13;;;3.72;;
60468;SDS011;46316;47.582;10.238;2022-08-19T10:28:45;4.70;;;4.13;;
60468;SDS011;46316;47.582;10.238;2022-08-19T10:31:12;5.18;;;4.53;;
60468;SDS011;46316;47.582;10.238;2022-08-19T10:33:44;6.57;;;5.72;;
60468;SDS011;46316;47.582;10.238;2022-08-19T10:36:14;6.60;;;5.90;;
60468;SDS011;46316;47.582;10.238;2022-08-19T10:38:46;6.53;;;5.82;;
60468;SDS011;46316;47.582;10.238;2022-08-19T10:41:15;6.70;;;5.95;;
60468;SDS011;46316;47.582;10.238;2022-08-19T10:43:43;6.53;;;5.93;;
60468;SDS011;46316;47.582;10.238;2022-08-19T10:46:11;5.85;;;4.78;;
60468;SDS011;46316;47.582;10.238;2022-08-19T10:48:39;6.30;;;5.70;;
60468;SDS011;46316;47.582;10.238;2022-08-19T10:51:06;5.97;;;5.25;;
60468;SDS011;46316;47.582;10.238;2022-08-19T10:53:50;5.72;;;5.13;;
60468;SDS011;46316;47.582;10.238;2022-08-19T10:56:17;5.63;;;5.03;;
60468;SDS011;46316;47.582;10.238;2022-08-19T10:59:02;6.18;;;5.57;;
60468;SDS011;46316;47.582;10.238;2022-08-19T11:01:28;5.82;;;5.28;;
60468;SDS011;46316;47.582;10.238;2022-08-19T11:03:55;6.47;;;5.75;;
60468;SDS011;46316;47.582;10.238;2022-08-19T11:06:22;6.15;;;5.55;;
60468;SDS011;46316;47.582;10.238;2022-08-19T11:08:49;6.75;;;6.07;;
60468;SDS011;46316;47.582;10.238;2022-08-19T11:11:15;7.63;;;6.53;;
60468;SDS011;46316;47.582;10.238;2022-08-19T11:13:41;7.70;;;6.88;;
60468;SDS011;46316;47.582;10.238;2022-08-19T11:16:10;8.13;;;7.30;;
60468;SDS011;46316;47.582;10.238;2022-08-19T11:18:40;8.43;;;7.55;;
60468;SDS011;46316;47.582;10.238;2022-08-19T11:21:13;8.05;;;7.25;;
60468;SDS011;46316;47.582;10.238;2022-08-19T11:23:44;6.93;;;6.22;;
60468;SDS011;46316;47.582;10.238;2022-08-19T11:26:10;6.80;;;6.10;;
60468;SDS011;46316;47.582;10.238;2022-08-19T11:28:36;6.28;;;5.68;;
60468;SDS011;46316;47.582;10.238;2022-08-19T11:31:01;7.28;;;6.38;;
60468;SDS011;46316;47.582;10.238;2022-08-19T11:33:28;7.28;;;6.38;;
60468;SDS011;46316;47.582;10.238;2022-08-19T11:35:56;7.32;;;6.63;;
60468;SDS011;46316;47.582;10.238;2022-08-19T11:38:24;6.75;;;6.03;;
60468;SDS011;46316;47.582;10.238;2022-08-19T11:41:01;6.53;;;5.88;;
60468;SDS011;46316;47.582;10.238;2022-08-19T11:43:28;6.90;;;6.20;;
60468;SDS011;46316;47.582;10.238;2022-08-19T11:45:55;6.47;;;5.88;;
60468;SDS011;46316;47.582;10.238;2022-08-19T11:48:22;7.15;;;6.45;;
60468;SDS011;46316;47.582;10.238;2022-08-19T11:50:50;7.38;;;6.68;;
60468;SDS011;46316;47.582;10.238;2022-08-19T11:53:17;7.13;;;6.43;;
60468;SDS011;46316;47.582;10.238;2022-08-19T11:55:44;6.75;;;6.15;;
60468;SDS011;46316;47.582;10.238;2022-08-19T11:58:11;7.20;;;6.50;;
60468;SDS011;46316;47.582;10.238;2022-08-19T12:00:38;7.25;;;6.55;;
60468;SDS011;46316;47.582;10.238;2022-08-19T12:03:05;7.03;;;6.32;;
60468;SDS011;46316;47.582;10.238;2022-08-19T12:05:31;7.13;;;6.45;;
60468;SDS011;46316;47.582;10.238;2022-08-19T12:07:57;6.80;;;6.20;;
60468;SDS011;46316;47.582;10.238;2022-08-19T12:10:22;7.70;;;6.90;;
60468;SDS011;46316;47.582;10.238;2022-08-19T12:12:48;6.55;;;5.93;;
60468;SDS011;46316;47.582;10.238;2022-08-19T12:15:14;6.35;;;5.75;;
60468;SDS011;46316;47.582;10.238;2022-08-19T12:17:40;6.97;;;6.28;;
60468;SDS011;46316;47.582;10.238;2022-08-19T12:20:06;7.18;;;6.47;;
60468;SDS011;46316;47.582;10.238;2022-08-19T12:22:34;6.70;;;6.10;;
60468;SDS011;46316;47.582;10.238;2022-08-19T12:25:00;7.22;;;6.47;;
60468;SDS011;46316;47.582;10.238;2022-08-19T12:27:26;5.82;;;5.32;;
60468;SDS011;46316;47.582;10.238;2022-08-19T12:29:51;4.88;;;4.43;;
60468;SDS011;46316;47.582;10.238;2022-08-19T12:32:17;4.40;;;4.00;;
60468;SDS011;46316;47.582;10.238;2022-08-19T12:34:43;6.35;;;4.95;;
60468;SDS011;46316;47.582;10.238;2022-08-19T12:37:09;4.55;;;4.15;;
60468;SDS011;46316;47.582;10.238;2022-08-19T12:39:36;5.00;;;4.50;;
60468;SDS011;46316;47.582;10.238;2022-08-19T12:42:03;3.60;;;3.30;;
60468;SDS011;46316;47.582;10.238;2022-08-19T12:44:29;3.20;;;2.90;;
60468;SDS011;46316;47.582;10.238;2022-08-19T12:46:57;3.05;;;2.65;;
60468;SDS011;46316;47.582;10.238;2022-08-19T12:49:23;2.85;;;2.40;;
60468;SDS011;46316;47.582;10.238;2022-08-19T12:51:49;3.63;;;2.60;;
60468;SDS011;46316;47.582;10.238;2022-08-19T12:54:15;5.75;;;3.55;;
60468;SDS011;46316;47.582;10.238;2022-08-19T12:56:40;3.10;;;2.40;;
60468;SDS011;46316;47.582;10.238;2022-08-19T12:59:07;2.60;;;2.40;;
60468;SDS011;46316;47.582;10.238;2022-08-19T13:01:33;2.75;;;2.50;;
60468;SDS011;46316;47.582;10.238;2022-08-19T13:03:59;2.80;;;2.47;;
60468;SDS011;46316;47.582;10.238;2022-08-19T13:06:25;2.15;;;1.90;;
60468;SDS011;46316;47.582;10.238;2022-08-19T13:08:51;2.53;;;2.30;;
60468;SDS011;46316;47.582;10.238;2022-08-19T13:11:18;3.10;;;2.72;;
60468;SDS011;46316;47.582;10.238;2022-08-19T13:13:47;2.75;;;2.50;;
60468;SDS011;46316;47.582;10.238;2022-08-19T13:16:15;2.63;;;2.35;;
60468;SDS011;46316;47.582;10.238;2022-08-19T13:18:41;2.97;;;2.10;;
60468;SDS011;46316;47.582;10.238;2022-08-19T13:21:09;2.10;;;1.90;;
60468;SDS011;46316;47.582;10.238;2022-08-19T13:23:38;3.13;;;2.15;;
60468;SDS011;46316;47.582;10.238;2022-08-19T13:26:05;1.52;;;1.42;;
60468;SDS011;46316;47.582;10.238;2022-08-19T13:28:32;2.65;;;1.85;;
60468;SDS011;46316;47.582;10.238;2022-08-19T13:31:17;2.03;;;1.83;;
60468;SDS011;46316;47.582;10.238;2022-08-19T13:34:03;1.90;;;1.30;;
60468;SDS011;46316;47.582;10.238;2022-08-19T13:36:30;1.80;;;1.30;;
60468;SDS011;46316;47.582;10.238;2022-08-19T13:38:59;2.08;;;1.40;;
60468;SDS011;46316;47.582;10.238;2022-08-19T13:41:25;1.00;;;0.90;;
60468;SDS011;46316;47.582;10.238;2022-08-19T13:43:51;1.58;;;0.90;;
60468;SDS011;46316;47.582;10.238;2022-08-19T13:46:17;1.00;;;0.90;;
60468;SDS011;46316;47.582;10.238;2022-08-19T13:48:44;1.42;;;1.30;;
60468;SDS011;46316;47.582;10.238;2022-08-19T13:51:10;2.63;;;1.77;;
60468;SDS011;46316;47.582;10.238;2022-08-19T13:53:37;2.13;;;1.83;;
60468;SDS011;46316;47.582;10.238;2022-08-19T13:56:06;4.30;;;1.90;;
60468;SDS011;46316;47.582;10.238;2022-08-19T13:58:33;2.50;;;1.70;;
60468;SDS011;46316;47.582;10.238;2022-08-19T14:00:59;1.80;;;1.40;;
60468;SDS011;46316;47.582;10.238;2022-08-19T14:03:25;2.15;;;1.38;;
60468;SDS011;46316;47.582;10.238;2022-08-19T14:05:51;3.53;;;1.30;;
60468;SDS011;46316;47.582;10.238;2022-08-19T14:08:17;1.30;;;1.10;;
60468;SDS011;46316;47.582;10.238;2022-08-19T14:10:43;3.15;;;1.42;;
60468;SDS011;46316;47.582;10.238;2022-08-19T14:13:09;1.75;;;1.38;;
60468;SDS011;46316;47.582;10.238;2022-08-19T14:15:37;2.50;;;1.30;;
60468;SDS011;46316;47.582;10.238;2022-08-19T14:18:03;1.00;;;0.82;;
60468;SDS011;46316;47.582;10.238;2022-08-19T14:20:28;0.73;;;0.70;;
60468;SDS011;46316;47.582;10.238;2022-08-19T14:22:54;0.95;;;0.70;;
60468;SDS011;46316;47.582;10.238;2022-08-19T14:25:22;1.10;;;0.50;;
60468;SDS011;46316;47.582;10.238;2022-08-19T14:30:17;0.50;;;0.30;;
60468;SDS011;46316;47.582;10.238;2022-08-19T14:32:46;0.47;;;0.40;;
60468;SDS011;46316;47.582;10.238;2022-08-19T14:35:13;0.50;;;0.50;;
60468;SDS011;46316;47.582;10.238;2022-08-19T14:37:40;0.50;;;0.40;;
60468;SDS011;46316;47.582;10.238;2022-08-19T14:40:07;0.85;;;0.50;;
60468;SDS011;46316;47.582;10.238;2022-08-19T14:42:33;0.65;;;0.40;;
60468;SDS011;46316;47.582;10.238;2022-08-19T14:44:59;0.35;;;0.28;;
60468;SDS011;46316;47.582;10.238;2022-08-19T14:47:25;3.75;;;0.35;;
60468;SDS011;46316;47.582;10.238;2022-08-19T14:49:51;0.30;;;0.30;;
60468;SDS011;46316;47.582;10.238;2022-08-19T14:52:17;1.10;;;0.40;;
60468;SDS011;46316;47.582;10.238;2022-08-19T14:54:43;0.13;;;0.10;;